createdAt,value
2022-12-23T00:01:50.564Z,12.00
2022-12-23T00:04:17.300Z,13.20
2022-12-23T00:06:44.110Z,11.97
2022-12-23T00:09:10.729Z,12.30
2022-12-23T00:11:37.385Z,12.00
2022-12-23T00:14:22.800Z,11.93
2022-12-23T00:16:51.162Z,11.20
2022-12-23T00:19:18.220Z,11.27
2022-12-23T00:21:45.085Z,11.00
2022-12-23T00:24:12.198Z,11.27
2022-12-23T00:26:38.752Z,10.07
2022-12-23T00:29:05.360Z,10.50
2022-12-23T00:31:32.019Z,11.07
2022-12-23T00:33:58.929Z,10.00
2022-12-23T00:36:28.249Z,9.07
2022-12-23T00:39:15.069Z,8.75
2022-12-23T00:42:00.746Z,8.53
2022-12-23T00:44:27.437Z,8.47
2022-12-23T00:46:54.210Z,8.87
2022-12-23T00:49:40.242Z,8.27
2022-12-23T00:52:09.322Z,7.40
2022-12-23T00:54:36.186Z,7.60
2022-12-23T00:57:03.451Z,7.97
2022-12-23T00:59:30.109Z,7.10
2022-12-23T01:02:15.472Z,6.73
2022-12-23T01:05:01.681Z,7.20
2022-12-23T01:07:28.251Z,6.60
2022-12-23T01:09:54.800Z,5.80
2022-12-23T01:12:21.548Z,7.07
2022-12-23T01:14:48.660Z,6.83
2022-12-23T01:17:15.827Z,6.43
2022-12-23T01:19:42.557Z,6.40
2022-12-23T01:22:09.322Z,6.60
2022-12-23T01:24:35.868Z,7.17
2022-12-23T01:27:02.456Z,7.17
2022-12-23T01:29:29.992Z,7.00
2022-12-23T01:31:56.599Z,6.83
2022-12-23T01:34:23.166Z,7.33
2022-12-23T01:36:49.801Z,7.63
2022-12-23T01:39:16.378Z,7.90
2022-12-23T01:42:01.672Z,7.30
2022-12-23T01:44:57.832Z,7.87
2022-12-23T01:47:24.300Z,8.40
2022-12-23T01:49:55.545Z,8.73
2022-12-23T01:52:22.661Z,8.57
2022-12-23T01:54:49.597Z,8.87
2022-12-23T01:57:16.253Z,8.70
2022-12-23T02:00:03.352Z,9.60
2022-12-23T02:02:50.655Z,9.47
2022-12-23T02:05:17.758Z,8.57
2022-12-23T02:08:03.455Z,9.07
2022-12-23T02:10:43.912Z,9.23
2022-12-23T02:13:36.676Z,9.63
2022-12-23T02:16:17.958Z,10.10
2022-12-23T02:19:02.616Z,10.47
2022-12-23T02:21:44.147Z,10.10
2022-12-23T02:24:16.653Z,10.30
2022-12-23T02:27:09.104Z,10.53
2022-12-23T02:30:00.366Z,10.50
2022-12-23T02:32:45.646Z,10.03
2022-12-23T02:35:50.396Z,9.47
2022-12-23T02:38:26.749Z,9.87
2022-12-23T02:41:12.863Z,11.13
2022-12-23T02:43:57.346Z,10.30
2022-12-23T02:46:38.575Z,10.57
2022-12-23T02:49:12.836Z,11.07
2022-12-23T02:51:47.274Z,10.30
2022-12-23T02:54:18.728Z,10.03
2022-12-23T02:56:50.663Z,10.07
2022-12-23T02:59:24.336Z,9.80
2022-12-23T03:01:53.270Z,10.13
2022-12-23T03:04:20.063Z,9.70
2022-12-23T03:06:51.375Z,9.10
2022-12-23T03:09:30.912Z,9.60
2022-12-23T03:12:29.731Z,8.93
2022-12-23T03:15:08.805Z,8.23
2022-12-23T03:17:41.059Z,8.17
2022-12-23T03:20:26.429Z,8.03
2022-12-23T03:23:04.351Z,8.97
2022-12-23T03:25:35.929Z,7.90
2022-12-23T03:28:10.400Z,8.80
2022-12-23T03:30:39.187Z,6.97
2022-12-23T03:33:09.448Z,8.23
2022-12-23T03:35:45.461Z,7.78
2022-12-23T03:38:15.168Z,8.10
2022-12-23T03:40:45.384Z,8.02
2022-12-23T03:45:51.533Z,7.57
2022-12-23T03:48:27.487Z,7.47
2022-12-23T03:50:58.608Z,7.53
2022-12-23T03:53:33.559Z,7.60
2022-12-23T03:56:09.319Z,7.57
2022-12-23T03:58:53.876Z,8.30
2022-12-23T04:01:29.493Z,7.97
2022-12-23T04:04:11.502Z,7.13
2022-12-23T04:06:52.056Z,7.27
2022-12-23T04:09:22.424Z,7.50
2022-12-23T04:11:49.667Z,6.90
2022-12-23T04:14:20.993Z,7.93
2022-12-23T04:16:49.227Z,7.10
2022-12-23T04:19:16.064Z,6.63
2022-12-23T04:21:42.699Z,7.60
2022-12-23T04:24:09.358Z,7.30
2022-12-23T04:26:36.007Z,6.60
2022-12-23T04:29:02.656Z,7.10
2022-12-23T04:31:29.290Z,7.73
2022-12-23T04:33:55.847Z,6.60
2022-12-23T04:36:22.455Z,13.70
2022-12-23T04:38:49.063Z,7.90
2022-12-23T04:41:15.706Z,7.80
2022-12-23T04:43:43.663Z,7.73
2022-12-23T04:46:13.160Z,7.73
2022-12-23T04:48:39.787Z,7.47
2022-12-23T04:51:06.464Z,8.03
2022-12-23T04:53:33.177Z,8.70
2022-12-23T04:55:59.815Z,9.07
2022-12-23T04:58:26.404Z,7.87
2022-12-23T05:01:04.289Z,9.67
2022-12-23T05:03:31.204Z,10.97
2022-12-23T05:05:57.802Z,8.90
2022-12-23T05:08:24.423Z,9.27
2022-12-23T05:10:51.061Z,9.80
2022-12-23T05:13:17.815Z,9.97
2022-12-23T05:15:45.993Z,9.87
2022-12-23T05:18:12.803Z,9.30
2022-12-23T05:20:39.433Z,24.83
2022-12-23T05:23:06.205Z,11.10
2022-12-23T05:25:34.388Z,9.23
2022-12-23T05:28:01.085Z,9.07
2022-12-23T05:30:27.940Z,8.30
2022-12-23T05:32:55.908Z,7.57
2022-12-23T05:35:26.288Z,6.77
2022-12-23T05:40:23.847Z,10.00
2022-12-23T05:42:54.755Z,10.20
2022-12-23T05:45:22.770Z,9.93
2022-12-23T05:47:50.391Z,9.37
2022-12-23T05:50:17.033Z,8.97
2022-12-23T05:52:43.797Z,11.63
2022-12-23T05:55:10.620Z,12.53
2022-12-23T05:57:37.294Z,18.87
2022-12-23T06:00:04.634Z,16.40
2022-12-23T06:02:31.429Z,24.53
2022-12-23T06:04:58.351Z,19.00
2022-12-23T06:07:24.912Z,27.03
2022-12-23T06:09:53.480Z,24.07
2022-12-23T06:12:20.046Z,20.13
2022-12-23T06:14:46.809Z,14.27
2022-12-23T06:17:13.364Z,11.33
2022-12-23T06:19:39.954Z,11.57
2022-12-23T06:22:06.591Z,14.33
2022-12-23T06:24:33.144Z,11.70
2022-12-23T06:26:59.737Z,21.00
2022-12-23T06:29:26.395Z,29.63
2022-12-23T06:31:53.265Z,19.57
2022-12-23T06:34:19.846Z,23.83
2022-12-23T06:36:46.679Z,24.43
2022-12-23T06:39:13.620Z,20.90
2022-12-23T06:41:40.477Z,17.33
2022-12-23T06:44:07.114Z,26.20
2022-12-23T06:46:34.104Z,17.87
2022-12-23T06:49:00.730Z,18.47
2022-12-23T06:51:27.375Z,17.87
2022-12-23T06:53:53.959Z,19.70
2022-12-23T06:56:20.856Z,31.93
2022-12-23T06:58:47.671Z,24.17
2022-12-23T07:01:14.316Z,20.03
2022-12-23T07:03:41.436Z,21.87
2022-12-23T07:06:08.466Z,23.10
2022-12-23T07:08:35.157Z,17.07
2022-12-23T07:11:03.551Z,22.00
2022-12-23T07:13:31.089Z,21.30
2022-12-23T07:15:58.035Z,18.53
2022-12-23T07:18:25.787Z,18.70
2022-12-23T07:20:54.408Z,17.23
2022-12-23T07:23:21.053Z,17.80
2022-12-23T07:25:48.160Z,15.63
2022-12-23T07:28:14.703Z,14.00
2022-12-23T07:30:41.271Z,14.93
2022-12-23T07:33:08.222Z,13.50
2022-12-23T07:35:35.012Z,15.00
2022-12-23T07:38:01.830Z,15.03
2022-12-23T07:40:28.607Z,13.20
2022-12-23T07:42:57.718Z,14.93
2022-12-23T07:45:25.923Z,14.40
2022-12-23T07:47:57.065Z,15.53
2022-12-23T07:50:24.229Z,15.20
2022-12-23T07:52:52.497Z,13.30
2022-12-23T07:55:20.429Z,12.63
2022-12-23T07:57:51.233Z,13.23
2022-12-23T08:00:19.678Z,12.13
2022-12-23T08:02:47.276Z,11.53
2022-12-23T08:05:15.129Z,11.20
2022-12-23T08:07:42.368Z,11.83
2022-12-23T08:10:09.845Z,11.73
2022-12-23T08:12:36.515Z,12.00
2022-12-23T08:15:03.388Z,12.83
2022-12-23T08:17:30.927Z,12.33
2022-12-23T08:19:57.641Z,11.37
2022-12-23T08:22:24.834Z,8.77
2022-12-23T08:24:52.735Z,9.10
2022-12-23T08:27:19.759Z,8.83
2022-12-23T08:29:46.366Z,8.97
2022-12-23T08:32:13.115Z,10.60
2022-12-23T08:34:39.767Z,10.77
2022-12-23T08:37:06.605Z,9.93
2022-12-23T08:39:33.196Z,9.73
2022-12-23T08:41:59.802Z,9.23
2022-12-23T08:44:28.089Z,9.37
2022-12-23T08:46:55.656Z,9.30
2022-12-23T08:49:22.646Z,8.67
2022-12-23T08:51:49.379Z,8.63
2022-12-23T08:54:16.121Z,9.63
2022-12-23T08:56:43.017Z,8.73
2022-12-23T08:59:19.189Z,9.07
2022-12-23T09:01:48.011Z,8.90
2022-12-23T09:04:15.157Z,8.00
2022-12-23T09:06:42.998Z,9.07
2022-12-23T09:09:14.679Z,8.57
2022-12-23T09:11:41.958Z,7.50
2022-12-23T09:14:10.310Z,7.90
2022-12-23T09:16:37.668Z,6.80
2022-12-23T09:19:04.992Z,7.43
2022-12-23T09:21:31.885Z,7.80
2022-12-23T09:23:58.980Z,8.13
2022-12-23T09:26:27.891Z,7.40
2022-12-23T09:28:55.305Z,7.50
2022-12-23T09:31:22.836Z,6.50
2022-12-23T09:33:51.561Z,6.17
2022-12-23T09:36:18.969Z,7.03
2022-12-23T09:38:46.705Z,6.10
2022-12-23T09:41:16.005Z,6.13
2022-12-23T09:44:07.186Z,6.22
2022-12-23T09:46:38.875Z,6.20
2022-12-23T09:49:17.693Z,7.23
2022-12-23T09:51:46.988Z,6.40
2022-12-23T09:54:21.218Z,7.10
2022-12-23T09:56:59.176Z,6.97
2022-12-23T09:59:44.463Z,7.53
2022-12-23T10:02:22.667Z,7.57
2022-12-23T10:05:17.105Z,7.17
2022-12-23T10:08:08.314Z,7.93
2022-12-23T10:11:01.953Z,7.70
2022-12-23T10:13:42.142Z,9.43
2022-12-23T10:16:15.878Z,7.50
2022-12-23T10:19:02.014Z,7.27
2022-12-23T10:21:35.398Z,7.23
2022-12-23T10:24:11.063Z,6.93
2022-12-23T10:26:53.261Z,7.40
2022-12-23T10:29:25.262Z,6.70
2022-12-23T10:32:25.362Z,6.70
2022-12-23T10:34:59.045Z,6.03
2022-12-23T10:37:34.584Z,6.17
2022-12-23T10:40:38.338Z,6.30
2022-12-23T10:43:17.100Z,6.30
2022-12-23T10:45:52.727Z,6.65
2022-12-23T10:48:48.537Z,6.63
2022-12-23T10:51:38.812Z,6.03
2022-12-23T10:54:26.827Z,6.00
2022-12-23T10:56:54.348Z,6.20
2022-12-23T10:59:26.481Z,5.90
2022-12-23T11:02:02.272Z,6.60
2022-12-23T11:04:39.403Z,7.83
2022-12-23T11:07:42.969Z,6.83
2022-12-23T11:10:00.656Z,6.97
2022-12-23T11:12:52.618Z,6.73
2022-12-23T11:15:40.274Z,6.63
2022-12-23T11:18:19.496Z,7.87
2022-12-23T11:21:02.784Z,7.17
2022-12-23T11:23:32.673Z,6.70
2022-12-23T11:28:32.260Z,7.60
2022-12-23T11:31:09.751Z,7.73
2022-12-23T11:33:39.909Z,8.47
2022-12-23T11:36:13.701Z,7.90
2022-12-23T11:39:20.534Z,7.70
2022-12-23T11:41:49.523Z,8.53
2022-12-23T11:44:38.347Z,8.90
2022-12-23T11:47:29.194Z,9.90
2022-12-23T11:49:59.198Z,9.40
2022-12-23T11:55:23.146Z,9.97
2022-12-23T11:57:51.109Z,10.57
2022-12-23T12:00:25.197Z,10.67
2022-12-23T12:02:58.724Z,9.37
2022-12-23T12:05:37.384Z,9.90
2022-12-23T12:08:09.982Z,10.40
2022-12-23T12:10:39.251Z,10.00
2022-12-23T12:13:28.461Z,10.35
2022-12-23T12:16:18.772Z,9.23
2022-12-23T12:18:52.030Z,8.93
2022-12-23T12:21:28.598Z,10.20
2022-12-23T12:24:17.944Z,10.53
2022-12-23T12:29:39.646Z,10.53
2022-12-23T12:32:21.881Z,11.37
2022-12-23T12:35:02.874Z,13.00
2022-12-23T12:37:41.500Z,12.77
2022-12-23T12:40:34.042Z,13.20
2022-12-23T12:43:12.696Z,12.57
2022-12-23T12:45:50.305Z,12.03
2022-12-23T12:48:32.243Z,13.50
2022-12-23T12:51:16.013Z,13.20
2022-12-23T12:54:05.198Z,11.87
2022-12-23T12:56:44.150Z,13.40
2022-12-23T12:59:24.340Z,12.47
2022-12-23T13:02:16.144Z,10.97
2022-12-23T13:05:03.579Z,9.53
2022-12-23T13:07:54.749Z,10.37
2022-12-23T13:10:47.525Z,9.93
2022-12-23T13:13:33.552Z,9.73
2022-12-23T13:16:24.887Z,9.20
2022-12-23T13:19:01.170Z,8.97
2022-12-23T13:21:33.614Z,9.23
2022-12-23T13:24:14.237Z,9.70
2022-12-23T13:27:03.097Z,9.23
2022-12-23T13:29:32.701Z,9.33
2022-12-23T13:32:41.175Z,9.30
2022-12-23T13:35:45.585Z,8.97
2022-12-23T13:38:59.708Z,8.87
2022-12-23T13:41:26.364Z,8.50
2022-12-23T13:44:07.450Z,8.83
2022-12-23T13:46:36.876Z,7.77
2022-12-23T13:49:23.718Z,8.23
2022-12-23T13:51:56.357Z,8.03
2022-12-23T13:54:51.674Z,7.67
2022-12-23T13:57:56.453Z,9.17
2022-12-23T14:00:25.041Z,11.63
2022-12-23T14:03:00.204Z,14.60
2022-12-23T14:05:32.308Z,17.27
2022-12-23T14:08:01.725Z,14.80
2022-12-23T14:10:29.090Z,11.70
2022-12-23T14:13:02.071Z,10.30
2022-12-23T14:15:31.635Z,10.87
2022-12-23T14:18:32.122Z,10.88
2022-12-23T14:21:08.050Z,10.97
2022-12-23T14:24:03.966Z,10.03
2022-12-23T14:26:51.061Z,10.37
2022-12-23T14:30:05.254Z,10.97
2022-12-23T14:32:43.213Z,9.20
2022-12-23T14:35:24.336Z,10.03
2022-12-23T14:38:15.622Z,10.80
2022-12-23T14:40:42.221Z,11.37
2022-12-23T14:43:27.627Z,11.23
2022-12-23T14:45:55.529Z,10.73
2022-12-23T14:48:34.116Z,11.27
2022-12-23T14:51:23.103Z,9.57
2022-12-23T14:53:53.732Z,10.37
2022-12-23T14:56:39.759Z,9.67
2022-12-23T14:59:28.956Z,10.10
2022-12-23T15:02:05.595Z,10.10
2022-12-23T15:04:46.259Z,9.60
2022-12-23T15:07:25.199Z,11.53
2022-12-23T15:10:01.300Z,10.43
2022-12-23T15:12:46.396Z,10.30
2022-12-23T15:15:17.830Z,10.07
2022-12-23T15:17:45.859Z,11.63
2022-12-23T15:20:25.701Z,12.80
2022-12-23T15:23:01.496Z,12.65
2022-12-23T15:25:33.875Z,10.63
2022-12-23T15:28:05.443Z,10.77
2022-12-23T15:30:47.606Z,11.90
2022-12-23T15:34:00.647Z,12.90
2022-12-23T15:36:12.156Z,11.53
2022-12-23T15:38:41.338Z,12.27
2022-12-23T15:41:17.540Z,14.35
2022-12-23T15:43:45.577Z,12.47
2022-12-23T15:46:25.101Z,16.17
2022-12-23T15:48:55.924Z,17.20
2022-12-23T15:52:05.881Z,13.43
2022-12-23T15:54:45.119Z,13.73
2022-12-23T15:57:18.805Z,14.50
2022-12-23T15:59:47.124Z,14.77
2022-12-23T16:02:58.931Z,14.73
2022-12-23T16:05:11.984Z,15.30
2022-12-23T16:07:43.295Z,16.07
2022-12-23T16:10:22.185Z,17.27
2022-12-23T16:12:54.871Z,20.67
2022-12-23T16:15:32.932Z,20.60
2022-12-23T16:18:19.370Z,20.07
2022-12-23T16:21:00.441Z,22.10
2022-12-23T16:23:35.364Z,16.60
2022-12-23T16:26:04.724Z,21.00
2022-12-23T16:28:45.390Z,24.17
2022-12-23T16:31:16.515Z,23.47
2022-12-23T16:34:01.867Z,18.90
2022-12-23T16:36:34.137Z,19.47
2022-12-23T16:39:22.610Z,20.30
2022-12-23T16:41:57.071Z,19.80
2022-12-23T16:44:24.520Z,19.30
2022-12-23T16:46:53.414Z,18.37
2022-12-23T16:49:28.012Z,15.73
2022-12-23T16:51:59.721Z,16.53
2022-12-23T16:54:26.301Z,16.87
2022-12-23T16:56:52.880Z,16.37
2022-12-23T16:59:20.819Z,19.47
2022-12-23T17:01:49.773Z,19.10
2022-12-23T17:04:19.155Z,16.27
2022-12-23T17:06:47.100Z,16.63
2022-12-23T17:09:15.597Z,17.10
2022-12-23T17:11:50.268Z,17.00
2022-12-23T17:14:23.878Z,16.83
2022-12-23T17:16:52.487Z,17.57
2022-12-23T17:19:27.732Z,18.33
2022-12-23T17:22:02.084Z,19.47
2022-12-23T17:24:31.306Z,17.70
2022-12-23T17:27:00.703Z,15.23
2022-12-23T17:29:29.876Z,15.25
2022-12-23T17:31:56.542Z,16.93
2022-12-23T17:34:24.331Z,17.20
2022-12-23T17:36:51.694Z,14.20
2022-12-23T17:39:20.438Z,14.67
2022-12-23T17:41:47.765Z,14.40
2022-12-23T17:44:16.478Z,13.93
2022-12-23T17:46:43.468Z,13.73
2022-12-23T17:49:11.685Z,13.10
2022-12-23T17:51:40.113Z,13.97
2022-12-23T17:54:06.753Z,14.47
2022-12-23T17:56:33.735Z,13.73
2022-12-23T17:59:00.370Z,14.13
2022-12-23T18:01:30.054Z,13.43
2022-12-23T18:03:58.905Z,12.77
2022-12-23T18:06:27.514Z,14.30
2022-12-23T18:08:54.260Z,12.53
2022-12-23T18:11:22.920Z,13.97
2022-12-23T18:13:52.226Z,13.37
2022-12-23T18:16:18.933Z,13.52
2022-12-23T18:18:47.039Z,13.17
2022-12-23T18:21:20.824Z,12.50
2022-12-23T18:23:47.616Z,12.43
2022-12-23T18:26:15.292Z,13.17
2022-12-23T18:28:43.372Z,12.93
2022-12-23T18:31:16.505Z,12.83
2022-12-23T18:33:43.722Z,12.60
2022-12-23T18:36:24.365Z,12.97
2022-12-23T18:38:52.264Z,13.33
2022-12-23T18:41:20.203Z,12.43
2022-12-23T18:43:47.520Z,13.20
2022-12-23T18:46:14.931Z,13.27
2022-12-23T18:48:41.728Z,12.43
2022-12-23T18:51:14.860Z,13.47
2022-12-23T18:53:41.743Z,13.67
2022-12-23T18:56:13.800Z,14.23
2022-12-23T18:58:40.514Z,13.07
2022-12-23T19:01:14.824Z,12.73
2022-12-23T19:03:45.287Z,13.60
2022-12-23T19:06:16.200Z,13.47
2022-12-23T19:08:43.904Z,13.73
2022-12-23T19:11:16.495Z,14.13
2022-12-23T19:13:43.479Z,13.53
2022-12-23T19:16:16.103Z,13.87
2022-12-23T19:18:43.058Z,13.70
2022-12-23T19:21:09.691Z,15.60
2022-12-23T19:23:37.201Z,16.13
2022-12-23T19:26:06.070Z,17.40
2022-12-23T19:28:38.102Z,16.57
2022-12-23T19:31:10.385Z,16.27
2022-12-23T19:33:38.650Z,14.73
2022-12-23T19:36:10.252Z,15.27
2022-12-23T19:38:37.163Z,15.10
2022-12-23T19:41:04.514Z,14.30
2022-12-23T19:43:31.114Z,13.43
2022-12-23T19:46:02.191Z,14.87
2022-12-23T19:48:29.916Z,13.53
2022-12-23T19:51:22.807Z,14.07
2022-12-23T19:53:54.339Z,13.87
2022-12-23T19:56:21.667Z,12.77
2022-12-23T19:58:50.901Z,12.60
2022-12-23T20:01:25.235Z,13.30
2022-12-23T20:03:53.787Z,14.27
2022-12-23T20:06:23.752Z,14.33
2022-12-23T20:08:56.375Z,15.85
2022-12-23T20:11:26.664Z,18.13
2022-12-23T20:13:54.333Z,21.50
2022-12-23T20:16:21.851Z,19.63
2022-12-23T20:18:48.829Z,20.17
2022-12-23T20:21:15.650Z,18.33
2022-12-23T20:23:43.002Z,18.00
2022-12-23T20:26:12.539Z,18.27
2022-12-23T20:28:39.262Z,19.23
2022-12-23T20:31:09.301Z,19.43
2022-12-23T20:36:06.997Z,14.80
2022-12-23T20:38:34.877Z,13.60
2022-12-23T20:41:03.229Z,13.70
2022-12-23T20:43:29.783Z,12.87
2022-12-23T20:45:56.629Z,12.40
2022-12-23T20:48:25.875Z,11.93
2022-12-23T20:50:56.776Z,12.10
2022-12-23T20:53:23.661Z,12.93
2022-12-23T20:55:50.325Z,12.03
2022-12-23T20:58:35.769Z,13.33
2022-12-23T21:01:10.284Z,12.07
2022-12-23T21:03:37.015Z,10.43
2022-12-23T21:06:04.774Z,10.53
2022-12-23T21:08:31.468Z,9.17
2022-12-23T21:10:58.674Z,9.93
2022-12-23T21:13:25.473Z,9.97
2022-12-23T21:15:53.326Z,11.10
2022-12-23T21:18:19.944Z,8.73
2022-12-23T21:20:46.529Z,10.57
2022-12-23T21:23:13.120Z,13.37
2022-12-23T21:25:39.675Z,13.27
2022-12-23T21:28:06.248Z,10.97
2022-12-23T21:30:34.086Z,10.20
2022-12-23T21:33:02.531Z,9.43
2022-12-23T21:35:29.254Z,10.93
2022-12-23T21:37:56.189Z,10.37
2022-12-23T21:40:22.809Z,10.27
2022-12-23T21:42:49.585Z,9.77
2022-12-23T21:45:16.128Z,9.33
2022-12-23T21:47:42.719Z,9.47
2022-12-23T21:50:09.675Z,10.10
2022-12-23T21:52:36.211Z,12.47
2022-12-23T21:55:02.833Z,10.47
2022-12-23T21:57:29.727Z,13.00
2022-12-23T21:59:56.384Z,11.20
2022-12-23T22:02:23.069Z,12.07
2022-12-23T22:04:49.756Z,13.50
2022-12-23T22:07:16.336Z,17.63
2022-12-23T22:09:42.962Z,17.60
2022-12-23T22:12:09.505Z,16.07
2022-12-23T22:14:36.112Z,20.53
2022-12-23T22:17:02.816Z,15.80
2022-12-23T22:19:29.524Z,15.80
2022-12-23T22:21:56.112Z,13.30
2022-12-23T22:24:22.941Z,15.50
2022-12-23T22:26:49.921Z,18.07
2022-12-23T22:29:16.861Z,14.03
2022-12-23T22:31:49.868Z,15.63
2022-12-23T22:34:19.373Z,16.70
2022-12-23T22:36:46.976Z,15.50
2022-12-23T22:39:20.086Z,14.80
2022-12-23T22:41:48.197Z,13.80
2022-12-23T22:44:15.466Z,14.27
2022-12-23T22:46:42.614Z,11.03
2022-12-23T22:49:13.598Z,10.57
2022-12-23T22:51:41.894Z,10.70
2022-12-23T22:54:09.088Z,9.70
2022-12-23T22:56:35.728Z,9.93
2022-12-23T22:59:02.429Z,10.60
2022-12-23T23:01:32.918Z,10.40
2022-12-23T23:04:02.163Z,10.73
2022-12-23T23:06:31.534Z,13.13
2022-12-23T23:08:58.402Z,12.18
2022-12-23T23:11:26.380Z,14.23
2022-12-23T23:13:53.851Z,12.27
2022-12-23T23:16:20.864Z,11.63
2022-12-23T23:18:47.520Z,11.50
2022-12-23T23:21:14.987Z,11.67
2022-12-23T23:23:41.789Z,10.63
2022-12-23T23:26:10.253Z,10.53
2022-12-23T23:28:39.380Z,10.40
2022-12-23T23:31:39.914Z,11.07
2022-12-23T23:33:55.509Z,11.43
2022-12-23T23:36:22.168Z,14.70
2022-12-23T23:38:48.744Z,15.87
2022-12-23T23:41:22.242Z,14.33
2022-12-23T23:43:49.712Z,13.07
2022-12-23T23:46:16.485Z,12.10
2022-12-23T23:48:43.173Z,10.80
2022-12-23T23:51:09.869Z,13.00
2022-12-23T23:53:36.435Z,12.57
2022-12-23T23:56:06.263Z,11.50
2022-12-23T23:58:33.652Z,12.23
